createdAt,value
2024-03-28T00:00:05.978Z,86081.00
2024-03-28T00:01:05.989Z,86088.00
2024-03-28T00:02:05.983Z,86092.00
2024-03-28T00:03:05.979Z,86092.00
2024-03-28T00:04:05.973Z,86099.00
2024-03-28T00:05:05.974Z,86098.00
2024-03-28T00:06:05.971Z,86104.00
2024-03-28T00:07:05.978Z,86102.00
2024-03-28T00:08:05.964Z,86105.00
2024-03-28T00:09:05.963Z,86103.00
2024-03-28T00:10:05.963Z,86109.00
2024-03-28T00:11:05.959Z,86106.00
2024-03-28T00:12:05.967Z,86107.00
2024-03-28T00:13:05.950Z,86105.00
2024-03-28T00:14:05.958Z,86103.00
2024-03-28T00:15:05.947Z,86105.00
2024-03-28T00:16:05.955Z,86105.00
2024-03-28T00:17:05.952Z,86103.00
2024-03-28T00:18:05.950Z,86102.00
2024-03-28T00:19:08.218Z,86100.00
2024-03-28T00:20:05.941Z,86102.00
2024-03-28T00:21:05.969Z,86101.00
2024-03-28T00:22:05.997Z,86100.00
2024-03-28T00:23:06.029Z,86103.00
2024-03-28T00:24:06.064Z,86101.00
2024-03-28T00:25:06.102Z,86100.00
2024-03-28T00:26:06.134Z,86097.00
2024-03-28T00:27:06.174Z,86100.00
2024-03-28T00:28:06.196Z,86098.00
2024-03-28T00:29:06.249Z,86098.00
2024-03-28T00:30:06.258Z,86097.00
2024-03-28T00:31:06.289Z,86101.00
2024-03-28T00:32:06.325Z,86096.00
2024-03-28T00:33:06.347Z,86098.00
2024-03-28T00:34:06.382Z,86093.00
2024-03-28T00:35:06.414Z,86099.00
2024-03-28T00:36:06.436Z,86100.00
2024-03-28T00:37:06.473Z,86100.00
2024-03-28T00:38:06.497Z,86100.00
2024-03-28T00:39:06.537Z,86103.00
2024-03-28T00:40:06.561Z,86104.00
2024-03-28T00:41:06.605Z,86101.00
2024-03-28T00:42:06.613Z,86100.00
2024-03-28T00:43:06.646Z,86101.00
2024-03-28T00:44:06.676Z,86103.00
2024-03-28T00:45:06.718Z,86102.00
2024-03-28T00:46:06.731Z,86103.00
2024-03-28T00:47:06.743Z,86103.00
2024-03-28T00:48:06.766Z,86099.00
2024-03-28T00:49:06.799Z,86107.00
2024-03-28T00:50:06.834Z,86109.00
2024-03-28T00:51:06.945Z,86104.00
2024-03-28T00:52:06.895Z,86107.00
2024-03-28T00:53:06.908Z,86104.00
2024-03-28T00:54:06.940Z,86104.00
2024-03-28T00:55:06.972Z,86102.00
2024-03-28T00:56:07.004Z,86103.00
2024-03-28T00:57:07.039Z,86106.00
2024-03-28T00:58:07.093Z,86108.00
2024-03-28T00:59:07.079Z,86108.00
2024-03-28T01:00:07.128Z,86104.00
2024-03-28T01:01:07.148Z,86105.00
2024-03-28T01:02:07.175Z,86105.00
2024-03-28T01:03:07.202Z,86110.00
2024-03-28T01:04:07.228Z,86112.00
2024-03-28T01:05:07.260Z,86111.00
2024-03-28T01:06:07.294Z,86115.00
2024-03-28T01:07:07.331Z,86115.00
2024-03-28T01:08:07.361Z,86113.00
2024-03-28T01:09:07.387Z,86115.00
2024-03-28T01:10:07.413Z,86118.00
2024-03-28T01:11:07.450Z,86115.00
2024-03-28T01:12:07.501Z,86116.00
2024-03-28T01:13:07.515Z,86113.00
2024-03-28T01:14:07.535Z,86111.00
2024-03-28T01:15:07.575Z,86108.00
2024-03-28T01:16:07.591Z,86108.00
2024-03-28T01:17:07.650Z,86109.00
2024-03-28T01:18:09.658Z,86110.00
2024-03-28T01:19:07.913Z,86110.00
2024-03-28T01:20:07.663Z,86111.00
2024-03-28T01:21:07.667Z,86114.00
2024-03-28T01:22:07.694Z,86114.00
2024-03-28T01:23:07.672Z,86114.00
2024-03-28T01:24:07.666Z,86111.00
2024-03-28T01:25:07.655Z,86111.00
2024-03-28T01:26:07.668Z,86110.00
2024-03-28T01:27:07.652Z,86108.00
2024-03-28T01:28:10.232Z,86108.00
2024-03-28T01:29:07.630Z,86109.00
2024-03-28T01:30:07.643Z,86112.00
2024-03-28T01:31:07.624Z,86109.00
2024-03-28T01:32:07.633Z,86111.00
2024-03-28T01:33:07.617Z,86113.00
2024-03-28T01:34:07.616Z,86110.00
2024-03-28T01:35:07.594Z,86111.00
2024-03-28T01:36:07.601Z,86114.00
2024-03-28T01:37:10.215Z,86111.00
2024-03-28T01:38:07.590Z,86115.00
2024-03-28T01:39:07.590Z,86116.00
2024-03-28T01:40:07.577Z,86120.00
2024-03-28T01:41:07.571Z,86121.00
2024-03-28T01:42:07.571Z,86115.00
2024-03-28T01:43:07.562Z,86111.00
2024-03-28T01:44:07.564Z,86108.00
2024-03-28T01:45:07.563Z,86108.00
2024-03-28T01:46:07.657Z,86106.00
2024-03-28T01:47:25.824Z,86107.00
2024-03-28T01:48:08.758Z,86110.00
2024-03-28T01:49:07.571Z,86110.00
2024-03-28T01:50:07.569Z,86116.00
2024-03-28T01:51:07.572Z,86119.00
2024-03-28T01:52:07.574Z,86119.00
2024-03-28T01:53:07.576Z,86117.00
2024-03-28T01:54:07.580Z,86115.00
2024-03-28T01:55:07.571Z,86111.00
2024-03-28T01:56:07.570Z,86112.00
2024-03-28T01:57:07.611Z,86116.00
2024-03-28T01:58:07.565Z,86115.00
2024-03-28T01:59:07.571Z,86119.00
2024-03-28T02:00:07.606Z,86118.00
2024-03-28T02:01:07.562Z,86118.00
2024-03-28T02:02:07.638Z,86123.00
2024-03-28T02:03:07.575Z,86124.00
2024-03-28T02:04:07.576Z,86121.00
2024-03-28T02:05:07.584Z,86119.00
2024-03-28T02:06:07.581Z,86124.00
2024-03-28T02:07:07.591Z,86125.00
2024-03-28T02:08:07.780Z,86124.00
2024-03-28T02:09:07.644Z,86127.00
2024-03-28T02:10:07.676Z,86125.00
2024-03-28T02:11:07.693Z,86122.00
2024-03-28T02:12:09.907Z,86122.00
2024-03-28T02:13:07.713Z,86125.00
2024-03-28T02:14:07.733Z,86128.00
2024-03-28T02:15:07.721Z,86134.00
2024-03-28T02:16:07.713Z,86134.00
2024-03-28T02:17:07.711Z,86137.00
2024-03-28T02:18:07.707Z,86140.00
2024-03-28T02:19:07.713Z,86140.00
2024-03-28T02:20:07.702Z,86141.00
2024-03-28T02:21:07.689Z,86144.00
2024-03-28T02:22:07.709Z,86143.00
2024-03-28T02:23:07.680Z,86142.00
2024-03-28T02:24:07.694Z,86142.00
2024-03-28T02:25:07.677Z,86146.00
2024-03-28T02:26:07.683Z,86144.00
2024-03-28T02:27:07.685Z,86149.00
2024-03-28T02:28:07.681Z,86148.00
2024-03-28T02:29:07.698Z,86158.00
2024-03-28T02:30:07.707Z,86155.00
2024-03-28T02:31:07.670Z,86158.00
2024-03-28T02:32:07.676Z,86161.00
2024-03-28T02:33:07.664Z,86160.00
2024-03-28T02:34:07.666Z,86159.00
2024-03-28T02:35:07.674Z,86157.00
2024-03-28T02:36:07.658Z,86164.00
2024-03-28T02:37:07.667Z,86166.00
2024-03-28T02:38:07.664Z,86167.00
2024-03-28T02:39:07.660Z,86164.00
2024-03-28T02:40:07.651Z,86164.00
2024-03-28T02:41:07.684Z,86161.00
2024-03-28T02:42:07.750Z,86157.00
2024-03-28T02:43:07.679Z,86155.00
2024-03-28T02:44:07.663Z,86152.00
2024-03-28T02:45:07.666Z,86161.00
2024-03-28T02:46:07.667Z,86167.00
2024-03-28T02:47:07.678Z,86168.00
2024-03-28T02:48:07.667Z,86173.00
2024-03-28T02:49:07.662Z,86173.00
2024-03-28T02:50:07.659Z,86172.00
2024-03-28T02:51:07.652Z,86172.00
2024-03-28T02:52:07.654Z,86169.00
2024-03-28T02:53:07.653Z,86172.00
2024-03-28T02:54:07.636Z,86166.00
2024-03-28T02:55:07.630Z,86166.00
2024-03-28T02:56:07.629Z,86167.00
2024-03-28T02:57:07.643Z,86168.00
2024-03-28T02:58:07.632Z,86169.00
2024-03-28T02:59:07.635Z,86167.00
2024-03-28T03:00:07.642Z,86168.00
2024-03-28T03:01:07.635Z,86173.00
2024-03-28T03:02:07.645Z,86179.00
2024-03-28T03:03:07.628Z,86182.00
2024-03-28T03:04:07.644Z,86185.00
2024-03-28T03:05:07.624Z,86188.00
2024-03-28T03:06:07.652Z,86193.00
2024-03-28T03:07:07.644Z,86189.00
2024-03-28T03:08:07.645Z,86192.00
2024-03-28T03:09:07.629Z,86193.00
2024-03-28T03:10:07.653Z,86194.00
2024-03-28T03:11:07.651Z,86190.00
2024-03-28T03:12:07.659Z,86190.00
2024-03-28T03:13:07.654Z,86197.00
2024-03-28T03:14:07.650Z,86198.00
2024-03-28T03:15:07.656Z,86200.00
2024-03-28T03:16:07.683Z,86195.00
2024-03-28T03:17:07.659Z,86198.00
2024-03-28T03:18:07.663Z,86194.00
2024-03-28T03:19:07.665Z,86198.00
2024-03-28T03:20:07.659Z,86201.00
2024-03-28T03:21:07.661Z,86207.00
2024-03-28T03:22:07.665Z,86207.00
2024-03-28T03:23:07.661Z,86206.00
2024-03-28T03:24:07.675Z,86203.00
2024-03-28T03:25:07.685Z,86198.00
2024-03-28T03:26:07.720Z,86199.00
2024-03-28T03:27:07.756Z,86196.00
2024-03-28T03:28:07.792Z,86193.00
2024-03-28T03:29:07.847Z,86192.00
2024-03-28T03:30:07.881Z,86196.00
2024-03-28T03:31:07.912Z,86193.00
2024-03-28T03:32:07.955Z,86199.00
2024-03-28T03:33:07.987Z,86199.00
2024-03-28T03:34:08.024Z,86206.00
2024-03-28T03:35:08.070Z,86201.00
2024-03-28T03:36:08.111Z,86203.00
2024-03-28T03:37:08.147Z,86198.00
2024-03-28T03:38:08.185Z,86199.00
2024-03-28T03:39:08.280Z,86199.00
2024-03-28T03:40:08.274Z,86201.00
2024-03-28T03:41:08.290Z,86198.00
2024-03-28T03:42:08.331Z,86201.00
2024-03-28T03:43:08.356Z,86202.00
2024-03-28T03:44:08.399Z,86204.00
2024-03-28T03:45:08.439Z,86204.00
2024-03-28T03:46:08.467Z,86205.00
2024-03-28T03:47:08.508Z,86208.00
2024-03-28T03:48:08.536Z,86208.00
2024-03-28T03:49:08.578Z,86209.00
2024-03-28T03:50:08.615Z,86212.00
2024-03-28T03:51:08.644Z,86210.00
2024-03-28T03:52:08.693Z,86215.00
2024-03-28T03:53:08.752Z,86213.00
2024-03-28T03:54:08.766Z,86212.00
2024-03-28T03:55:08.782Z,86214.00
2024-03-28T03:56:08.818Z,86217.00
2024-03-28T03:57:08.859Z,86216.00
2024-03-28T03:58:08.892Z,86220.00
2024-03-28T03:59:08.911Z,86221.00
2024-03-28T04:00:08.960Z,86224.00
2024-03-28T04:01:08.971Z,86222.00
2024-03-28T04:02:09.024Z,86223.00
2024-03-28T04:03:09.050Z,86231.00
2024-03-28T04:04:09.087Z,86231.00
2024-03-28T04:05:09.116Z,86234.00
2024-03-28T04:06:09.151Z,86236.00
2024-03-28T04:07:09.181Z,86243.00
2024-03-28T04:08:09.220Z,86245.00
2024-03-28T04:09:09.244Z,86244.00
2024-03-28T04:10:09.290Z,86245.00
2024-03-28T04:11:09.311Z,86247.00
2024-03-28T04:12:09.368Z,86256.00
2024-03-28T04:13:09.397Z,86261.00
2024-03-28T04:14:09.422Z,86261.00
2024-03-28T04:15:09.459Z,86257.00
2024-03-28T04:16:09.496Z,86254.00
2024-03-28T04:17:09.534Z,86253.00
2024-03-28T04:18:09.582Z,86253.00
2024-03-28T04:19:09.605Z,86252.00
2024-03-28T04:20:09.647Z,86256.00
2024-03-28T04:21:09.683Z,86259.00
2024-03-28T04:22:09.725Z,86255.00
2024-03-28T04:23:09.755Z,86257.00
2024-03-28T04:24:09.821Z,86262.00
2024-03-28T04:25:09.838Z,86261.00
2024-03-28T04:26:09.889Z,86264.00
2024-03-28T04:27:09.916Z,86267.00
2024-03-28T04:28:09.949Z,86269.00
2024-03-28T04:29:17.196Z,86277.00
2024-03-28T04:30:17.180Z,86275.00
2024-03-28T04:31:24.566Z,86277.00
2024-03-28T04:32:24.585Z,86279.00
2024-03-28T04:33:24.550Z,86274.00
2024-03-28T04:34:24.652Z,86274.00
2024-03-28T04:35:24.589Z,86276.00
2024-03-28T04:36:24.588Z,86270.00
2024-03-28T04:37:24.603Z,86264.00
2024-03-28T04:38:24.579Z,86272.00
2024-03-28T04:39:24.594Z,86273.00
2024-03-28T04:40:24.648Z,86265.00
2024-03-28T04:41:24.592Z,86266.00
2024-03-28T04:42:24.577Z,86265.00
2024-03-28T04:43:24.600Z,86263.00
2024-03-28T04:44:24.586Z,86265.00
2024-03-28T04:45:24.582Z,86257.00
2024-03-28T04:46:24.622Z,86249.00
2024-03-28T04:47:24.598Z,86257.00
2024-03-28T04:48:24.649Z,86264.00
2024-03-28T04:49:24.621Z,86260.00
2024-03-28T04:50:24.618Z,86262.00
2024-03-28T04:51:24.625Z,86263.00
2024-03-28T04:52:24.692Z,86263.00
2024-03-28T04:53:24.631Z,86269.00
2024-03-28T04:54:24.639Z,86263.00
2024-03-28T04:55:27.719Z,86269.00
2024-03-28T04:56:24.646Z,86271.00
2024-03-28T04:57:24.654Z,86269.00
2024-03-28T04:58:24.700Z,86268.00
2024-03-28T04:59:24.657Z,86273.00
2024-03-28T05:00:24.703Z,86274.00
2024-03-28T05:01:24.713Z,86274.00
2024-03-28T05:02:24.688Z,86271.00
2024-03-28T05:03:24.686Z,86275.00
2024-03-28T05:04:24.705Z,86273.00
2024-03-28T05:05:24.710Z,86274.00
2024-03-28T05:06:24.702Z,86282.00
2024-03-28T05:07:24.795Z,86278.00
2024-03-28T05:08:24.724Z,86285.00
2024-03-28T05:09:24.728Z,86286.00
2024-03-28T05:10:24.793Z,86290.00
2024-03-28T05:11:25.852Z,86290.00
2024-03-28T05:12:24.736Z,86288.00
2024-03-28T05:13:24.757Z,86291.00
2024-03-28T05:14:24.747Z,86290.00
2024-03-28T05:15:24.746Z,86290.00
2024-03-28T05:16:24.792Z,86290.00
2024-03-28T05:17:24.784Z,86291.00
2024-03-28T05:18:24.761Z,86292.00
2024-03-28T05:19:24.792Z,86293.00
2024-03-28T05:20:24.774Z,86298.00
2024-03-28T05:21:24.771Z,86300.00
2024-03-28T05:22:24.806Z,86295.00
2024-03-28T05:23:24.770Z,86289.00
2024-03-28T05:24:24.791Z,86288.00
2024-03-28T05:25:24.844Z,86287.00
2024-03-28T05:26:24.772Z,86288.00
2024-03-28T05:27:27.479Z,86294.00
2024-03-28T05:28:24.794Z,86293.00
2024-03-28T05:29:24.817Z,86297.00
2024-03-28T05:30:24.806Z,86299.00
2024-03-28T05:31:24.829Z,86300.00
2024-03-28T05:32:24.806Z,86305.00
2024-03-28T05:33:24.814Z,86309.00
2024-03-28T05:34:24.827Z,86316.00
2024-03-28T05:35:24.792Z,86314.00
2024-03-28T05:36:24.785Z,86309.00
2024-03-28T05:37:24.818Z,86319.00
2024-03-28T05:38:24.803Z,86315.00
2024-03-28T05:39:24.802Z,86313.00
2024-03-28T05:40:24.837Z,86311.00
2024-03-28T05:41:24.788Z,86305.00
2024-03-28T05:42:24.798Z,86313.00
2024-03-28T05:43:24.822Z,86319.00
2024-03-28T05:44:24.807Z,86318.00
2024-03-28T05:45:24.801Z,86326.00
2024-03-28T05:46:24.819Z,86321.00
2024-03-28T05:47:24.832Z,86320.00
2024-03-28T05:48:24.841Z,86321.00
2024-03-28T05:49:24.885Z,86318.00
2024-03-28T05:50:24.857Z,86323.00
2024-03-28T05:51:24.839Z,86325.00
2024-03-28T05:52:24.892Z,86327.00
2024-03-28T05:53:24.847Z,86327.00
2024-03-28T05:54:24.848Z,86330.00
2024-03-28T05:55:24.851Z,86330.00
2024-03-28T05:56:24.853Z,86325.00
2024-03-28T05:57:24.858Z,86322.00
2024-03-28T05:58:24.876Z,86325.00
2024-03-28T05:59:24.850Z,86323.00
2024-03-28T06:00:24.865Z,86325.00
2024-03-28T06:01:24.886Z,86324.00
2024-03-28T06:02:24.861Z,86325.00
2024-03-28T06:03:27.403Z,86325.00
2024-03-28T06:04:24.875Z,86327.00
2024-03-28T06:05:24.862Z,86323.00
2024-03-28T06:06:24.865Z,86326.00
2024-03-28T06:07:24.869Z,86320.00
2024-03-28T06:08:24.865Z,86328.00
2024-03-28T06:09:24.858Z,86326.00
2024-03-28T06:10:24.890Z,86329.00
2024-03-28T06:11:24.859Z,86332.00
2024-03-28T06:12:24.866Z,86333.00
2024-03-28T06:13:24.878Z,86334.00
2024-03-28T06:14:24.844Z,86327.00
2024-03-28T06:15:24.848Z,86329.00
2024-03-28T06:16:24.854Z,86334.00
2024-03-28T06:17:24.832Z,86335.00
2024-03-28T06:18:24.876Z,86341.00
2024-03-28T06:19:24.820Z,86348.00
2024-03-28T06:20:24.813Z,86350.00
2024-03-28T06:21:24.817Z,86350.00
2024-03-28T06:22:27.064Z,86350.00
2024-03-28T06:23:24.803Z,86359.00
2024-03-28T06:24:24.797Z,86353.00
2024-03-28T06:25:24.827Z,86348.00
2024-03-28T06:26:24.855Z,86348.00
2024-03-28T06:27:24.898Z,86348.00
2024-03-28T06:28:24.942Z,86343.00
2024-03-28T06:29:24.956Z,86345.00
2024-03-28T06:30:25.020Z,86345.00
2024-03-28T06:31:25.096Z,86345.00
2024-03-28T06:32:25.133Z,86346.00
2024-03-28T06:33:25.117Z,86347.00
2024-03-28T06:34:25.162Z,86349.00
2024-03-28T06:35:25.179Z,86346.00
2024-03-28T06:36:25.222Z,86341.00
2024-03-28T06:37:25.213Z,86335.00
2024-03-28T06:38:25.213Z,86335.00
2024-03-28T06:39:25.210Z,86340.00
2024-03-28T06:40:25.216Z,86341.00
2024-03-28T06:41:25.205Z,86338.00
2024-03-28T06:42:25.197Z,86339.00
2024-03-28T06:43:25.202Z,86332.00
2024-03-28T06:44:25.173Z,86332.00
2024-03-28T06:45:25.165Z,86331.00
2024-03-28T06:46:25.196Z,86333.00
2024-03-28T06:47:25.163Z,86327.00
2024-03-28T06:48:25.211Z,86326.00
2024-03-28T06:49:25.159Z,86324.00
2024-03-28T06:50:25.185Z,86321.00
2024-03-28T06:51:25.243Z,86323.00
2024-03-28T06:52:25.326Z,86324.00
2024-03-28T06:53:25.302Z,86322.00
2024-03-28T06:54:25.343Z,86319.00
2024-03-28T06:55:25.405Z,86313.00
2024-03-28T06:56:25.411Z,86318.00
2024-03-28T06:57:25.454Z,86322.00
2024-03-28T06:58:25.537Z,86311.00
2024-03-28T06:59:25.522Z,86326.00
2024-03-28T07:00:25.563Z,86316.00
2024-03-28T07:01:25.673Z,86329.00
2024-03-28T07:02:25.634Z,86328.00
2024-03-28T07:03:25.674Z,86338.00
2024-03-28T07:04:25.711Z,86333.00
2024-03-28T07:05:25.736Z,86342.00
2024-03-28T07:06:25.779Z,86343.00
2024-03-28T07:07:25.838Z,86343.00
2024-03-28T07:08:25.844Z,86339.00
2024-03-28T07:09:25.884Z,86339.00
2024-03-28T07:10:25.982Z,86337.00
2024-03-28T07:11:25.969Z,86340.00
2024-03-28T07:12:26.036Z,86339.00
2024-03-28T07:13:26.073Z,86340.00
2024-03-28T07:14:26.091Z,86335.00
2024-03-28T07:15:26.130Z,86338.00
2024-03-28T07:16:26.179Z,86352.00
2024-03-28T07:17:26.292Z,86354.00
2024-03-28T07:18:26.249Z,86355.00
2024-03-28T07:19:26.392Z,86355.00
2024-03-28T07:20:26.299Z,86357.00
2024-03-28T07:21:26.346Z,86354.00
2024-03-28T07:22:26.404Z,86364.00
2024-03-28T07:23:26.403Z,86356.00
2024-03-28T07:24:26.454Z,86357.00
2024-03-28T07:25:26.504Z,86357.00
2024-03-28T07:26:26.490Z,86345.00
2024-03-28T07:27:26.529Z,86346.00
2024-03-28T07:28:26.585Z,86338.00
2024-03-28T07:29:26.593Z,86335.00
2024-03-28T07:30:26.631Z,86327.00
2024-03-28T07:31:26.694Z,86326.00
2024-03-28T07:32:26.677Z,86323.00
2024-03-28T07:33:26.703Z,86325.00
2024-03-28T07:34:26.763Z,86328.00
2024-03-28T07:35:28.944Z,86325.00
2024-03-28T07:36:26.823Z,86323.00
2024-03-28T07:37:26.901Z,86322.00
2024-03-28T07:38:26.907Z,86325.00
2024-03-28T07:39:26.949Z,86328.00
2024-03-28T07:40:26.998Z,86320.00
2024-03-28T07:41:27.024Z,86318.00
2024-03-28T07:42:27.069Z,86324.00
2024-03-28T07:43:27.129Z,86332.00
2024-03-28T07:44:27.151Z,86329.00
2024-03-28T07:45:27.193Z,86323.00
2024-03-28T07:46:27.199Z,86326.00
2024-03-28T07:47:27.292Z,86341.00
2024-03-28T07:48:27.286Z,86342.00
2024-03-28T07:49:27.324Z,86352.00
2024-03-28T07:50:27.371Z,86351.00
2024-03-28T07:51:27.381Z,86351.00
2024-03-28T07:52:27.441Z,86356.00
2024-03-28T07:53:27.459Z,86366.00
2024-03-28T07:54:27.490Z,86361.00
2024-03-28T07:55:27.545Z,86373.00
2024-03-28T07:56:27.574Z,86382.00
2024-03-28T07:57:27.601Z,86376.00
2024-03-28T07:58:27.626Z,86376.00
2024-03-28T07:59:27.591Z,86386.00
2024-03-28T08:00:27.595Z,86387.00
2024-03-28T08:01:27.583Z,86385.00
2024-03-28T08:02:27.588Z,86386.00
2024-03-28T08:03:27.564Z,86402.00
2024-03-28T08:04:27.595Z,86409.00
2024-03-28T08:05:27.555Z,86407.00
2024-03-28T08:06:27.538Z,86420.00
2024-03-28T08:07:27.552Z,86409.00
2024-03-28T08:08:27.543Z,86401.00
2024-03-28T08:09:27.567Z,86400.00
2024-03-28T08:10:27.636Z,86396.00
2024-03-28T08:11:27.646Z,86390.00
2024-03-28T08:12:27.669Z,86391.00
2024-03-28T08:13:27.735Z,86393.00
2024-03-28T08:14:27.733Z,86385.00
2024-03-28T08:15:27.791Z,86391.00
2024-03-28T08:16:27.838Z,86395.00
2024-03-28T08:17:27.897Z,86402.00
2024-03-28T08:18:27.893Z,86397.00
2024-03-28T08:19:27.964Z,86393.00
2024-03-28T08:20:27.973Z,86392.00
2024-03-28T08:21:28.000Z,86389.00
2024-03-28T08:22:28.074Z,86385.00
2024-03-28T08:23:28.072Z,86387.00
2024-03-28T08:24:28.098Z,86385.00
2024-03-28T08:25:28.166Z,86388.00
2024-03-28T08:26:28.200Z,86397.00
2024-03-28T08:27:28.212Z,86396.00
2024-03-28T08:28:28.264Z,86389.00
2024-03-28T08:29:28.266Z,86395.00
2024-03-28T08:30:28.888Z,86402.00
2024-03-28T08:31:28.372Z,86392.00
2024-03-28T08:32:28.426Z,86401.00
2024-03-28T08:33:28.427Z,86410.00
2024-03-28T08:34:28.470Z,86406.00
2024-03-28T08:35:28.511Z,86399.00
2024-03-28T08:36:28.544Z,86396.00
2024-03-28T08:37:28.599Z,86401.00
2024-03-28T08:38:28.627Z,86387.00
2024-03-28T08:39:28.671Z,86386.00
2024-03-28T08:40:28.716Z,86387.00
2024-03-28T08:41:28.763Z,86389.00
2024-03-28T08:42:28.799Z,86390.00
2024-03-28T08:43:28.817Z,86385.00
2024-03-28T08:44:28.887Z,86376.00
2024-03-28T08:45:28.909Z,86384.00
2024-03-28T08:46:28.935Z,86392.00
2024-03-28T08:47:29.043Z,86396.00
2024-03-28T08:48:28.969Z,86400.00
2024-03-28T08:49:28.990Z,86401.00
2024-03-28T08:50:28.996Z,86400.00
2024-03-28T08:51:28.961Z,86410.00
2024-03-28T08:52:28.993Z,86414.00
2024-03-28T08:53:28.958Z,86423.00
2024-03-28T08:54:28.956Z,86430.00
2024-03-28T08:55:28.968Z,86420.00
2024-03-28T08:56:30.678Z,86428.00
2024-03-28T08:57:29.249Z,86430.00
2024-03-28T08:58:29.228Z,86425.00
2024-03-28T08:59:29.116Z,86422.00
2024-03-28T09:00:29.111Z,86424.00
2024-03-28T09:01:28.948Z,86423.00
2024-03-28T09:02:28.951Z,86426.00
2024-03-28T09:03:28.909Z,86425.00
2024-03-28T09:04:28.902Z,86431.00
2024-03-28T09:05:28.892Z,86434.00
2024-03-28T09:06:28.906Z,86434.00
2024-03-28T09:07:28.918Z,86440.00
2024-03-28T09:08:28.891Z,86433.00
2024-03-28T09:09:28.948Z,86427.00
2024-03-28T09:10:28.891Z,86432.00
2024-03-28T09:11:28.892Z,86427.00
2024-03-28T09:12:28.902Z,86432.00
2024-03-28T09:13:28.929Z,86417.00
2024-03-28T09:14:28.909Z,86427.00
2024-03-28T09:15:28.978Z,86415.00
2024-03-28T09:16:28.994Z,86400.00
2024-03-28T09:17:29.029Z,86411.00
2024-03-28T09:18:29.098Z,86394.00
2024-03-28T09:19:29.158Z,86429.00
2024-03-28T09:20:29.115Z,86419.00
2024-03-28T09:21:29.227Z,86402.00
2024-03-28T09:22:29.201Z,86425.00
2024-03-28T09:23:29.280Z,86417.00
2024-03-28T09:24:29.299Z,86427.00
2024-03-28T09:25:29.311Z,86417.00
2024-03-28T09:26:29.333Z,86411.00
2024-03-28T09:27:29.386Z,86406.00
2024-03-28T09:28:29.430Z,86412.00
2024-03-28T09:29:29.447Z,86398.00
2024-03-28T09:30:29.506Z,86405.00
2024-03-28T09:31:29.525Z,86392.00
2024-03-28T09:32:30.187Z,86395.00
2024-03-28T09:33:29.630Z,86393.00
2024-03-28T09:34:29.621Z,86404.00
2024-03-28T09:35:29.632Z,86404.00
2024-03-28T09:36:29.698Z,86402.00
2024-03-28T09:37:29.603Z,86402.00
2024-03-28T09:38:29.599Z,86397.00
2024-03-28T09:39:29.575Z,86388.00
2024-03-28T09:40:29.678Z,86383.00
2024-03-28T09:41:29.604Z,86381.00
2024-03-28T09:42:29.589Z,86382.00
2024-03-28T09:43:29.628Z,86393.00
2024-03-28T09:44:29.586Z,86395.00
2024-03-28T09:45:29.595Z,86393.00
2024-03-28T09:46:29.666Z,86389.00
2024-03-28T09:47:29.634Z,86398.00
2024-03-28T09:48:29.595Z,86393.00
2024-03-28T09:49:29.653Z,86389.00
2024-03-28T09:50:29.624Z,86388.00
2024-03-28T09:51:29.697Z,86393.00
2024-03-28T09:52:29.742Z,86395.00
2024-03-28T09:53:29.765Z,86393.00
2024-03-28T09:54:29.768Z,86399.00
2024-03-28T09:55:29.908Z,86395.00
2024-03-28T09:56:29.827Z,86395.00
2024-03-28T09:57:29.875Z,86397.00
2024-03-28T09:58:29.908Z,86404.00
2024-03-28T09:59:29.932Z,86402.00
2024-03-28T10:00:30.010Z,86401.00
2024-03-28T10:01:30.013Z,86395.00
2024-03-28T10:02:30.077Z,86389.00
2024-03-28T10:03:30.081Z,86390.00
2024-03-28T10:04:30.091Z,86389.00
2024-03-28T10:05:30.112Z,86387.00
2024-03-28T10:06:30.133Z,86386.00
2024-03-28T10:07:30.168Z,86393.00
2024-03-28T10:08:30.218Z,86387.00
2024-03-28T10:09:30.220Z,86381.00
2024-03-28T10:10:30.262Z,86383.00
2024-03-28T10:11:30.273Z,86381.00
2024-03-28T10:12:30.319Z,86383.00
2024-03-28T10:13:30.314Z,86375.00
2024-03-28T10:14:30.406Z,86363.00
2024-03-28T10:15:30.553Z,86377.00
2024-03-28T10:16:30.538Z,86370.00
2024-03-28T10:17:30.605Z,86375.00
2024-03-28T10:18:30.543Z,86373.00
2024-03-28T10:19:30.554Z,86387.00
2024-03-28T10:20:30.547Z,86380.00
2024-03-28T10:21:30.547Z,86375.00
2024-03-28T10:22:30.580Z,86379.00
2024-03-28T10:23:30.561Z,86369.00
2024-03-28T10:24:30.555Z,86375.00
2024-03-28T10:25:30.596Z,86384.00
2024-03-28T10:26:30.563Z,86380.00
2024-03-28T10:27:30.564Z,86383.00
2024-03-28T10:28:30.578Z,86383.00
2024-03-28T10:29:30.560Z,86380.00
2024-03-28T10:30:30.572Z,86384.00
2024-03-28T10:31:30.550Z,86376.00
2024-03-28T10:32:30.549Z,86387.00
2024-03-28T10:33:30.591Z,86387.00
2024-03-28T10:34:30.574Z,86389.00
2024-03-28T10:35:30.548Z,86387.00
2024-03-28T10:36:30.551Z,86376.00
2024-03-28T10:37:40.464Z,86381.00
2024-03-28T10:38:31.576Z,86386.00
2024-03-28T10:39:30.548Z,86381.00
2024-03-28T10:40:30.565Z,86379.00
2024-03-28T10:41:30.563Z,86378.00
2024-03-28T10:42:30.553Z,86381.00
2024-03-28T10:43:30.568Z,86387.00
2024-03-28T10:44:30.552Z,86387.00
2024-03-28T10:45:30.565Z,86388.00
2024-03-28T10:46:30.558Z,86389.00
2024-03-28T10:47:30.557Z,86392.00
2024-03-28T10:48:30.551Z,86392.00
2024-03-28T10:49:30.535Z,86385.00
2024-03-28T10:50:30.543Z,86382.00
2024-03-28T10:51:30.534Z,86382.00
2024-03-28T10:52:30.536Z,86389.00
2024-03-28T10:53:30.559Z,86391.00
2024-03-28T10:54:30.535Z,86394.00
2024-03-28T10:55:32.756Z,86399.00
2024-03-28T10:56:30.527Z,86389.00
2024-03-28T10:57:30.516Z,86391.00
2024-03-28T10:58:30.524Z,86390.00
2024-03-28T10:59:30.508Z,86389.00
2024-03-28T11:00:30.547Z,86389.00
2024-03-28T11:01:32.850Z,86384.00
2024-03-28T11:02:30.654Z,86387.00
2024-03-28T11:03:30.762Z,86389.00
2024-03-28T11:04:30.864Z,86400.00
2024-03-28T11:05:30.950Z,86384.00
2024-03-28T11:06:30.940Z,86383.00
2024-03-28T11:07:30.957Z,86388.00
2024-03-28T11:08:30.956Z,86370.00
2024-03-28T11:09:30.958Z,86377.00
2024-03-28T11:10:30.974Z,86377.00
2024-03-28T11:11:31.072Z,86378.00
2024-03-28T11:12:31.071Z,86382.00
2024-03-28T11:13:31.098Z,86377.00
2024-03-28T11:14:31.073Z,86387.00
2024-03-28T11:15:31.072Z,86387.00
2024-03-28T11:16:31.061Z,86387.00
2024-03-28T11:17:31.060Z,86374.00
2024-03-28T11:18:31.066Z,86373.00
2024-03-28T11:19:33.541Z,86382.00
2024-03-28T11:20:31.039Z,86377.00
2024-03-28T11:21:31.055Z,86388.00
2024-03-28T11:22:31.038Z,86385.00
2024-03-28T11:23:31.049Z,86380.00
2024-03-28T11:24:31.045Z,86385.00
2024-03-28T11:25:31.065Z,86385.00
2024-03-28T11:26:31.027Z,86390.00
2024-03-28T11:27:31.041Z,86394.00
2024-03-28T11:28:31.019Z,86389.00
2024-03-28T11:29:31.005Z,86386.00
2024-03-28T11:30:30.993Z,86394.00
2024-03-28T11:31:30.999Z,86390.00
2024-03-28T11:32:30.983Z,86393.00
2024-03-28T11:33:30.963Z,86401.00
2024-03-28T11:34:30.968Z,86395.00
2024-03-28T11:35:30.955Z,86400.00
2024-03-28T11:36:30.950Z,86403.00
2024-03-28T11:37:30.970Z,86403.00
2024-03-28T11:38:30.950Z,86410.00
2024-03-28T11:39:30.932Z,86412.00
2024-03-28T11:40:30.945Z,86415.00
2024-03-28T11:41:30.968Z,86416.00
2024-03-28T11:42:35.941Z,86425.00
2024-03-28T11:43:31.927Z,86430.00
2024-03-28T11:44:30.924Z,86418.00